Latest Weather Observations for Wulungurru (Kintore)

IDD60801

Issued at 12:35 pm CST Monday 24 November 2014 (issued every 30 minutes, with the page automatically refreshed every 10 minutes)

About weather observations | Map of weather stations | Latest weather observations for NT | Other Formats
Station Details ID: 015664 Name: WALUNGURRU AIRPORT Lat: -23.27 Lon: 129.38 Height: 454.3 m
Data from the previous 72 hours. | See also: Recent months at Wulungurru (Kintore)
Date/Time
CST
Temp
°C
App
Temp
°C
Dew
Point
Rel
Hum
%
Delta-T
°C
Wind Press
QNH
hPa
Press
MSL
hPa
Rain
since 9 am
mm
Dir
 
Spd
km/h
Gust
km/h
Spd
kts
Gust
kts
24/12:30pm 37.7 37.3 13.0 23 15.4 NNE 7 11 4 6 1012.6 - 0.2
24/12:00pm 37.4 36.4 13.4 24 15.0 NNE 11 24 6 13 1012.9 1010.1 0.2
24/11:30am 35.7 33.3 12.6 25 14.2 NNE 17 22 9 12 1013.3 - 0.2
24/11:00am 36.3 34.6 13.7 25 14.1 NNE 15 22 8 12 1013.3 - 0.2
24/10:30am 35.0 32.8 13.2 27 13.5 NE 17 20 9 11 1013.5 - 0.2
24/10:00am 34.4 32.8 13.8 29 12.8 NNE 15 20 8 11 1013.8 - 0.0
24/09:30am 33.1 31.0 13.7 31 12.0 NE 17 22 9 12 1013.8 - 0.0
24/09:00am 31.1 29.2 14.3 36 10.4 NNE 17 20 9 11 1013.9 1011.1 0.0
24/08:30am 30.4 29.2 14.1 37 10.0 NE 13 19 7 10 1013.9 - 0.0
24/08:00am 29.1 29.8 14.5 41 9.0 NE 4 9 2 5 1013.9 - 0.0
24/07:30am 27.8 27.4 15.1 46 7.9 NE 11 13 6 7 1013.5 - 0.0
24/07:00am 26.9 26.9 15.3 49 7.2 NNE 9 11 5 6 1013.2 - 0.0
24/06:30am 26.1 25.7 15.2 51 6.7 E 11 15 6 8 1012.7 - 0.0
24/06:00am 26.1 25.3 15.2 51 6.7 ENE 13 15 7 8 1012.7 1009.8 0.0
24/05:30am 26.2 24.6 15.9 53 6.4 NNE 19 20 10 11 1012.5 - 0.0
24/05:00am 25.5 25.0 14.9 52 6.5 SSE 11 13 6 7 1011.9 - 0.0
24/04:30am 25.9 25.4 15.0 51 6.7 SSW 11 13 6 7 1012.0 - 0.0
24/04:00am 27.0 25.8 15.1 48 7.3 ENE 15 19 8 10 1011.2 - 0.0
24/03:30am 28.0 26.6 14.6 44 8.2 NNW 15 24 8 13 1011.7 - 0.0
24/03:00am 29.7 28.4 12.6 35 10.3 WNW 11 17 6 9 1011.0 1008.2 0.0
24/02:30am 29.6 27.4 13.4 37 9.8 NW 17 22 9 12 1010.6 - 0.0
24/02:00am 31.7 30.7 11.0 28 12.2 S 7 11 4 6 1010.1 - 0.0
24/01:30am 30.6 29.1 12.0 32 11.1 E 11 20 6 11 1010.1 - 0.0
24/01:00am 29.0 26.2 14.4 41 9.0 SE 22 30 12 16 1010.3 - 0.0
24/12:51am 29.1 25.0 14.9 42 8.8 S 30 48 16 26 1010.6 - 0.0
24/12:30am 30.0 26.5 14.5 38 9.6 WSW 26 39 14 21 1011.7 - 0.0
24/12:00am 29.9 25.7 13.6 36 9.9 W 28 44 15 24 1011.9 1009.0 0.0
 
Date/Time
CST
Temp
°C
App
Temp
°C
Dew
Point
Rel
Hum
%
Delta-T
°C
Wind Press
QNH
hPa
Press
MSL
hPa
Rain
since 9 am
mm
Dir
 
Spd
km/h
Gust
km/h
Spd
kts
Gust
kts
23/11:30pm 31.2 29.5 13.5 34 10.8 ESE 15 20 8 11 1010.7 - 0.0
23/11:00pm 29.7 27.6 13.5 37 9.9 SSE 17 28 9 15 1011.1 - 0.0
23/10:30pm 30.8 26.6 13.6 35 10.5 ESE 28 41 15 22 1010.8 - 0.0
23/10:00pm 30.1 27.1 13.8 37 10.0 SE 22 32 12 17 1010.7 - 0.0
23/09:30pm 31.2 28.1 11.6 30 11.6 SSE 19 24 10 13 1011.0 - 0.0
23/09:00pm 31.9 29.7 12.2 30 11.9 SE 15 22 8 12 1011.4 1008.6 0.0
23/08:30pm 33.3 28.5 12.9 29 12.5 SSW 30 37 16 20 1011.2 - 0.0
23/08:00pm 32.4 28.2 13.6 32 11.6 SSE 28 35 15 19 1009.3 - 0.0
23/07:30pm 33.5 29.2 11.9 27 13.0 S 26 41 14 22 1009.1 - 0.0
23/07:18pm 34.5 29.5 11.0 24 14.0 S 28 37 15 20 1008.9 - 0.0
23/07:00pm 36.7 35.3 10.8 21 15.5 W 9 11 5 6 1008.6 - 0.0
23/06:30pm 38.0 35.7 10.4 19 16.6 W 13 19 7 10 1008.2 - 0.0
23/06:00pm 39.1 36.0 10.4 18 17.3 W 17 24 9 13 1008.0 1005.1 0.0
23/05:30pm 39.5 36.7 9.9 17 17.7 W 15 28 8 15 1007.8 - 0.0
23/05:00pm 39.3 35.5 9.8 17 17.6 WSW 20 28 11 15 1007.9 - 0.0
23/04:30pm 39.5 36.7 9.9 17 17.7 W 15 22 8 12 1008.2 - 0.0
23/04:00pm 38.9 35.5 7.6 15 18.1 W 15 24 8 13 1008.6 - 0.0
23/03:30pm 39.7 36.8 8.2 15 18.4 WNW 13 20 7 11 1008.9 - 0.0
23/03:00pm 40.2 36.4 7.6 14 19.0 WSW 17 26 9 14 1009.1 1006.3 0.0
23/02:30pm 39.7 36.0 10.1 17 17.8 WNW 20 33 11 18 1009.6 - 0.0
23/02:00pm 39.2 35.1 11.3 19 17.0 W 24 30 13 16 1009.9 - 0.0
23/01:30pm 39.2 35.9 12.9 21 16.4 NW 22 32 12 17 1010.4 - 0.0
23/01:00pm 38.3 35.6 12.8 22 15.8 NNW 19 32 10 17 1010.8 - 0.0
23/12:30pm 37.9 34.3 13.2 23 15.4 WNW 24 37 13 20 1011.4 - 0.0
23/12:00pm 37.4 33.3 12.8 23 15.2 NW 26 35 14 19 1012.0 1009.1 0.0
23/11:30am 36.2 32.0 13.6 25 14.1 NNW 28 39 15 21 1012.3 - 0.0
23/11:00am 35.4 31.6 14.6 28 13.1 NNW 28 37 15 20 1012.6 - 0.0
23/10:30am 33.5 31.9 16.4 36 11.0 NW 20 30 11 16 1012.9 - 0.0
23/10:00am 32.8 31.4 17.0 38 10.2 N 20 30 11 16 1012.9 - 0.0
23/09:30am 30.9 29.6 16.9 43 9.0 NNW 19 26 10 14 1013.1 - 0.0
23/09:00am 29.3 28.3 17.5 49 7.6 N 19 22 10 12 1013.1 1010.3 1.0
23/08:30am 27.0 27.6 18.6 60 5.5 NE 13 17 7 9 1012.9 - 1.0
23/08:00am 26.5 26.6 18.4 61 5.2 NE 15 17 8 9 1012.7 - 1.0
23/07:30am 26.5 26.1 18.1 60 5.4 ENE 17 20 9 11 1012.3 - 1.0
23/07:00am 25.3 25.1 18.5 66 4.4 ENE 17 22 9 12 1011.6 - 1.0
23/06:30am 24.1 23.9 18.5 71 3.6 ENE 17 20 9 11 1011.3 - 1.0
23/06:00am 23.7 23.5 18.6 73 3.3 ENE 17 22 9 12 1011.0 1008.2 1.0
23/05:30am 23.8 23.6 18.4 72 3.5 ENE 17 20 9 11 1010.9 - 1.0
23/05:00am 23.7 24.2 18.4 72 3.4 ENE 13 19 7 10 1010.6 - 1.0
23/04:30am 23.8 23.6 18.4 72 3.5 E 17 22 9 12 1010.4 - 1.0
23/04:00am 24.3 24.1 18.5 70 3.7 ENE 17 24 9 13 1010.3 - 1.0
23/03:30am 24.3 24.6 18.7 71 3.6 E 15 19 8 10 1010.4 - 1.0
23/03:00am 24.4 23.9 19.0 72 3.5 ENE 20 26 11 14 1010.1 1007.2 1.0
23/02:30am 24.3 23.9 18.9 72 3.5 NNE 19 22 10 12 1010.3 - 1.0
23/02:00am 24.9 25.1 18.6 68 4.1 NE 15 19 8 10 1010.7 - 1.0
23/01:30am 25.5 25.5 18.2 64 4.7 ENE 15 19 8 10 1011.4 - 1.0
23/01:00am 25.9 25.0 17.8 61 5.2 ENE 19 24 10 13 1011.7 - 1.0
23/12:30am 25.8 24.8 18.0 62 5.0 ENE 20 28 11 15 1011.7 - 1.0
23/12:00am 25.7 25.3 18.1 63 4.9 ENE 17 22 9 12 1012.1 1009.2 1.0
 
Date/Time
CST
Temp
°C
App
Temp
°C
Dew
Point
Rel
Hum
%
Delta-T
°C
Wind Press
QNH
hPa
Press
MSL
hPa
Rain
since 9 am
mm
Dir
 
Spd
km/h
Gust
km/h
Spd
kts
Gust
kts
22/11:30pm 25.9 24.8 17.8 61 5.2 ENE 20 30 11 16 1012.3 - 1.0
22/11:00pm 25.8 24.8 18.0 62 5.0 ENE 20 28 11 15 1012.6 - 1.0
22/10:30pm 25.2 24.3 19.1 69 4.0 ENE 22 28 12 15 1012.5 - 1.0
22/10:00pm 24.9 23.5 18.8 69 4.0 ENE 24 32 13 17 1012.9 - 1.0
22/09:30pm 25.5 23.5 18.4 65 4.6 ENE 26 35 14 19 1013.0 - 1.0
22/09:00pm 26.2 25.3 19.1 65 4.6 ENE 22 30 12 16 1013.0 1010.2 1.0
22/08:30pm 26.4 27.9 19.0 63 4.8 W 9 13 5 7 1012.8 - 1.0
22/08:00pm 27.0 27.5 17.5 56 6.1 ESE 11 15 6 8 1011.3 - 1.0
22/07:30pm 26.5 26.1 18.9 63 5.0 E 19 22 10 12 1011.3 - 1.0
22/07:00pm 28.1 27.8 17.3 52 6.9 N 15 24 8 13 1012.4 - 0.6
22/06:30pm 27.7 25.0 17.5 53 6.5 N 28 37 15 20 1012.2 - 0.6
22/06:00pm 25.2 23.3 19.3 70 3.9 SSW 28 37 15 20 1011.0 1008.2 0.6
22/05:30pm 29.7 26.4 16.1 43 8.6 SW 28 46 15 25 1009.8 - 0.0
22/05:00pm 31.7 26.3 13.9 34 11.0 SW 35 57 19 31 1008.8 - 0.0
22/04:49pm 36.9 31.7 11.7 22 15.3 WNW 30 54 16 29 1008.3 - 0.0
22/04:30pm 38.5 34.7 9.1 17 17.3 NNW 19 24 10 13 1007.4 - 0.0
22/04:00pm 39.2 35.7 8.8 16 17.9 NNW 17 30 9 16 1007.5 - 0.0
22/03:30pm 40.1 36.4 9.5 16 18.3 NNW 19 32 10 17 1008.0 - 0.0
22/03:00pm 40.0 35.5 8.5 15 18.6 N 22 33 12 18 1008.8 1006.0 0.0
22/02:30pm 39.3 36.8 9.8 17 17.6 NNW 13 33 7 18 1009.3 - 0.0
22/02:00pm 40.3 38.0 10.5 17 18.1 N 13 32 7 17 1009.8 - 0.0
22/01:30pm 40.2 36.8 10.5 17 18.0 NNW 19 30 10 16 1010.2 - 0.0
22/01:00pm 40.9 37.1 11.0 17 18.3 NW 22 43 12 23 1010.5 - 0.0
22/12:30pm 39.7 36.1 11.7 19 17.2 NNW 22 37 12 20 1011.0 - 0.0
22/12:00pm 38.8 35.0 12.5 21 16.3 NNW 24 35 13 19 1011.5 1008.7 0.0
22/11:30am 37.9 33.4 12.5 22 15.7 NNW 28 39 15 21 1012.1 - 0.0
22/11:00am 37.1 32.8 13.2 24 14.9 NNW 28 41 15 22 1012.4 - 0.0
22/10:30am 36.3 31.8 13.7 25 14.1 NNW 30 43 16 23 1012.7 - 0.0
22/10:00am 35.5 31.3 13.6 26 13.6 NNW 28 39 15 21 1012.7 - 0.0
22/09:30am 34.7 29.9 13.0 27 13.3 NNW 30 39 16 21 1012.6 - 0.0
22/09:00am 33.2 29.8 13.8 31 12.0 NNW 24 33 13 18 1012.5 1009.6 0.0
22/08:30am 31.9 29.2 14.5 34 10.8 NNW 22 32 12 17 1012.5 - 0.0
22/08:00am 29.7 27.5 14.3 39 9.5 N 19 24 10 13 1012.1 - 0.0
22/07:30am 28.1 27.4 14.3 42 8.4 N 11 17 6 9 1012.1 - 0.0
22/07:00am 27.1 25.8 13.8 44 8.0 NE 13 20 7 11 1011.6 - 0.0
22/06:30am 26.0 24.7 13.8 47 7.3 NE 13 15 7 8 1011.1 - 0.0
22/06:00am 25.4 24.8 13.6 48 7.1 NNE 9 13 5 7 1010.9 1008.1 0.0
22/05:30am 25.9 25.2 13.1 45 7.6 NE 9 11 5 6 1010.5 - 0.0
22/05:00am 26.2 25.1 13.0 44 7.9 NNE 11 13 6 7 1010.2 - 0.0
22/04:30am 26.7 25.5 12.7 42 8.3 NNE 11 15 6 8 1010.1 - 0.0
22/04:00am 26.8 25.2 12.8 42 8.3 NE 13 15 7 8 1010.1 - 0.0
22/03:30am 27.0 26.1 12.6 41 8.5 NE 9 11 5 6 1010.0 - 0.0
22/03:00am 27.3 26.0 12.5 40 8.8 NNE 11 13 6 7 1010.0 1007.1 0.0
22/02:30am 27.6 26.3 12.4 39 9.0 NE 11 13 6 7 1010.1 - 0.0
22/02:00am 27.9 27.0 12.7 39 9.1 NE 9 11 5 6 1010.2 - 0.0
22/01:30am 27.8 27.3 12.6 39 9.0 NE 7 11 4 6 1010.3 - 0.0
22/01:00am 27.8 26.4 12.2 38 9.2 NE 11 13 6 7 1010.6 - 0.0
22/12:30am 28.1 26.3 12.0 36 9.5 NE 13 15 7 8 1010.7 - 0.0
22/12:00am 28.4 26.5 11.9 36 9.7 ENE 13 15 7 8 1010.8 1008.0 0.0
 
Date/Time
CST
Temp
°C
App
Temp
°C
Dew
Point
Rel
Hum
%
Delta-T
°C
Wind Press
QNH
hPa
Press
MSL
hPa
Rain
since 9 am
mm
Dir
 
Spd
km/h
Gust
km/h
Spd
kts
Gust
kts
21/11:30pm 28.7 27.9 11.7 35 10.0 NNE 7 11 4 6 1011.0 - 0.0
21/11:00pm 29.4 28.2 11.5 33 10.5 NE 9 11 5 6 1010.9 - 0.0
21/10:30pm 29.9 28.3 11.4 32 10.9 N 11 15 6 8 1010.9 - 0.0
21/10:00pm 30.4 29.1 11.4 31 11.2 NE 9 13 5 7 1010.7 - 0.0
21/09:30pm 31.2 29.1 11.1 29 11.9 NE 13 15 7 8 1010.3 - 0.0
21/09:00pm 31.5 29.8 11.3 29 12.0 NE 11 13 6 7 1010.3 1007.4 0.0
21/08:30pm 32.5 31.0 10.5 26 12.9 NNE 9 11 5 6 1010.0 - 0.0
21/08:00pm 33.9 31.2 10.5 24 13.8 N 15 19 8 10 1009.9 - 0.0
21/07:30pm 34.9 31.2 10.0 22 14.7 N 20 32 11 17 1009.6 - 0.0
21/07:00pm 35.9 31.8 10.2 21 15.2 N 22 30 12 16 1009.1 - 0.0
21/06:30pm 36.6 31.5 10.7 21 15.5 N 28 35 15 19 1008.9 - 0.0
21/06:00pm 36.5 31.2 11.3 22 15.3 N 30 43 16 23 1008.6 1005.7 0.0
21/05:30pm 37.1 31.0 11.8 22 15.4 N 35 46 19 25 1008.5 - 0.0
21/05:03pm 37.6 30.8 10.8 20 16.1 N 37 41 20 22 1008.5 - 0.0
21/05:00pm 39.2 35.8 7.8 15 18.2 NNW 15 24 8 13 1008.5 - 0.0
21/04:30pm 39.8 34.6 7.3 14 18.8 NW 24 41 13 22 1008.5 - 0.0
21/04:00pm 39.4 34.5 7.0 14 18.6 NNW 22 37 12 20 1008.7 - 0.0
21/03:30pm 40.3 36.3 6.6 13 19.3 NNW 17 24 9 13 1008.9 - 0.0
21/03:00pm 40.0 35.0 6.4 13 19.2 NNW 22 39 12 21 1009.2 1006.4 0.0
21/02:30pm 40.4 35.6 5.5 12 19.7 NW 20 32 11 17 1009.6 - 0.0
21/02:00pm 41.2 35.1 4.9 11 20.4 NW 26 37 14 20 1009.8 - 0.0
21/01:30pm 40.0 34.7 5.2 12 19.5 NW 22 35 12 19 1010.1 - 0.0
21/01:00pm 39.4 35.6 5.9 13 18.9 WSW 15 24 8 13 1010.6 - 0.0

Other Formats:

Comma delimited format used in spreadsheet applications
http://www.bom.gov.au/fwo/IDD60801/IDD60801.94321.axf

JavaScript Object Notation format (JSON) in row-major order
http://www.bom.gov.au/fwo/IDD60801/IDD60801.94321.json